Date,TemperatureHighF,TemperatureAvgF,TemperatureLowF,DewpointHighF,DewpointAvgF,DewpointLowF,HumidityHigh,HumidityAvg,HumidityLow,PressureMaxIn,PressureMinIn,WindSpeedMaxMPH,WindSpeedAvgMPH,GustSpeedMaxMPH,PrecipitationSumIn
2013-8-1,82.5,69.7,56.5,54.9,51.5,48.3,75,54,37,29.98,29.84,10,0,13,0.00
2013-8-2,77.3,66.0,54.5,55.5,50.4,47.4,81,59,37,30.05,29.86,13,0,13,0.00
2013-8-3,76.5,66.2,57.6,52.1,49.3,45.5,76,56,35,30.21,30.05,13,0,13,0.00
2013-8-4,78.2,66.4,56.0,56.1,51.3,46.2,72,59,45,30.21,29.86,16,1,16,0.00
2013-8-5,75.2,66.4,61.4,58.0,56.1,53.6,85,70,52,29.87,29.77,11,0,11,0.00
2013-8-6,80.8,64.8,55.8,64.1,57.5,50.4,89,78,53,29.86,29.67,10,0,10,0.33
2013-8-7,77.5,63.9,51.2,53.2,50.0,45.9,84,63,40,30.00,29.85,7,0,10,0.00
2013-8-8,77.5,66.9,57.5,54.3,52.7,49.6,83,62,41,30.01,29.94,10,0,10,0.00
2013-8-9,71.2,62.3,50.9,52.8,49.8,43.9,78,64,50,30.12,29.99,14,0,14,0.00
2013-8-10,76.5,64.5,51.2,55.4,52.2,46.8,87,66,46,30.18,30.02,11,0,11,0.00
2013-8-11,78.0,67.0,60.2,58.4,54.7,51.8,83,66,44,30.07,29.99,11,0,11,0.00
2013-8-12,81.1,67.2,53.2,57.5,51.8,45.6,84,60,39,30.11,30.02,13,0,16,0.00
2013-8-13,79.0,63.7,47.8,51.1,45.9,41.0,77,55,32,30.20,30.10,9,0,9,0.00
2013-8-14,79.8,66.5,51.2,51.1,47.4,44.3,79,53,31,30.15,30.02,10,0,11,0.00
2013-8-15,83.6,70.7,61.6,61.4,56.2,48.3,76,61,41,30.05,30.00,11,0,11,0.00
2013-8-16,82.2,71.5,60.4,60.5,56.3,53.5,83,61,39,30.08,30.02,18,2,18,0.00
2013-8-17,84.5,72.2,59.5,66.0,60.7,54.7,85,68,53,30.04,29.88,19,2,19,0.00
2013-8-18,85.7,75.0,64.3,68.9,63.8,58.1,80,69,55,29.93,29.78,22,3,22,0.00
2013-8-19,92.2,79.8,68.0,72.1,67.9,63.1,85,68,47,29.84,29.72,12,1,12,0.00
2013-8-20,96.9,82.9,70.6,75.7,69.9,65.7,85,67,41,29.73,29.63,19,3,19,0.00
2013-8-21,83.8,74.6,61.9,70.8,56.3,49.8,78,55,33,30.02,29.66,17,1,17,0.00
2013-8-22,80.5,70.4,59.8,53.2,48.1,44.2,68,47,30,30.15,30.01,12,0,12,0.00
2013-8-23,88.6,73.7,58.4,67.8,57.7,47.5,72,58,39,30.08,29.83,17,2,20,0.00
2013-8-24,95.2,83.4,73.2,73.1,70.0,67.0,81,65,46,29.84,29.64,23,4,23,0.00
2013-8-25,97.8,85.5,73.5,74.7,70.6,61.3,80,62,45,29.84,29.70,18,0,18,0.00
2013-8-26,94.7,82.4,74.2,75.1,71.4,64.9,86,70,49,29.84,29.74,17,0,17,0.00
2013-8-27,92.8,80.1,66.5,70.2,65.1,60.9,84,62,39,29.86,29.74,9,0,9,0.00
2013-8-28,93.0,82.2,74.9,73.3,68.7,66.2,76,64,46,29.91,29.84,12,0,12,0.00
2013-8-29,90.8,79.8,72.3,75.2,70.1,65.5,89,73,55,29.88,29.73,16,1,16,0.27
2013-8-30,89.7,75.5,66.0,66.3,63.6,60.6,89,69,40,29.95,29.78,11,0,13,0.00
2013-8-31,89.7,77.2,65.3,69.9,63.3,55.1,82,63,42,29.80,29.62,15,1,15,0.00